Time;durP1;ratioP1;P1;durP2;ratioP2;P2;SDS_P1;SDS_P2;PMS_P1;PMS_P2;Temp;Humidity;BMP_temperature;BMP_pressure;BME280_temperature;BME280_humidity;BME280_pressure;Samples;Min_cycle;Max_cycle;Signal;HPM_P1;HPM_P2
2023/09/02 00:00:22;;;;;;;4.28;1.52;;;;;;;;;;5018948;28;20233;-96
2023/09/02 00:02:50;;;;;;;2.80;1.40;;;;;;;;;;5017677;28;20197;-95
2023/09/02 00:05:17;;;;;;;5.97;1.70;;;;;;;;;;5017286;28;20200;-94
2023/09/02 00:07:45;;;;;;;4.25;1.70;;;;;;;;;;5017585;28;20235;-94
2023/09/02 00:10:12;;;;;;;2.80;1.50;;;;;;;;;;5017164;28;20682;-95
2023/09/02 00:12:40;;;;;;;5.90;1.77;;;;;;;;;;5016906;28;20259;-95
2023/09/02 00:15:10;;;;;;;2.90;1.60;;;;;;;;;;5017119;28;20200;-95
2023/09/02 00:17:37;;;;;;;4.45;1.65;;;;;;;;;;5017172;28;20205;-95
2023/09/02 00:20:07;;;;;;;3.25;1.40;;;;;;;;;;5016850;28;20211;-94
2023/09/02 00:22:34;;;;;;;2.95;1.58;;;;;;;;;;5016869;28;20654;-94
2023/09/02 00:25:02;;;;;;;3.78;1.58;;;;;;;;;;5016974;28;20208;-94
2023/09/02 00:27:29;;;;;;;2.35;1.45;;;;;;;;;;5016711;28;20201;-94
2023/09/02 00:29:57;;;;;;;3.22;1.60;;;;;;;;;;5018186;28;20264;-96
2023/09/02 00:32:26;;;;;;;2.10;1.70;;;;;;;;;;5016158;28;20197;-95
2023/09/02 00:34:54;;;;;;;3.10;1.60;;;;;;;;;;5015968;28;20205;-94
2023/09/02 00:37:21;;;;;;;2.97;1.65;;;;;;;;;;5016443;28;20200;-94
2023/09/02 00:39:49;;;;;;;5.90;1.70;;;;;;;;;;5016660;28;20201;-94
2023/09/02 00:42:19;;;;;;;1.85;1.27;;;;;;;;;;5016280;28;20209;-94
2023/09/02 00:44:47;;;;;;;3.60;1.55;;;;;;;;;;5016940;28;20259;-94
2023/09/02 00:47:14;;;;;;;2.63;1.30;;;;;;;;;;5015936;28;20280;-94
2023/09/02 00:49:43;;;;;;;2.67;1.50;;;;;;;;;;5015727;28;20225;-94
2023/09/02 00:52:10;;;;;;;4.25;1.80;;;;;;;;;;5016322;28;20201;-94
2023/09/02 00:54:37;;;;;;;4.50;1.67;;;;;;;;;;5016584;28;20251;-94
2023/09/02 00:57:06;;;;;;;2.50;1.30;;;;;;;;;;5016466;28;20205;-94
2023/09/02 00:59:33;;;;;;;4.75;2.03;;;;;;;;;;5015856;28;20312;-93
2023/09/02 01:02:02;;;;;;;2.92;1.52;;;;;;;;;;5015726;28;20730;-94
2023/09/02 01:04:30;;;;;;;2.67;1.55;;;;;;;;;;5015981;28;20720;-95
2023/09/02 01:07:01;;;;;;;3.78;1.60;;;;;;;;;;5016053;28;20205;-90
2023/09/02 01:09:28;;;;;;;5.18;1.88;;;;;;;;;;5015415;28;20233;-91
2023/09/02 01:11:56;;;;;;;2.60;1.83;;;;;;;;;;5015959;28;20220;-93
2023/09/02 01:14:23;;;;;;;2.80;1.75;;;;;;;;;;5016048;28;20201;-93
2023/09/02 01:16:51;;;;;;;2.75;2.00;;;;;;;;;;5015220;28;20718;-92
2023/09/02 01:19:18;;;;;;;3.45;1.75;;;;;;;;;;5015779;28;20595;-93
2023/09/02 01:22:02;;;;;;;4.07;1.95;;;;;;;;;;5015692;28;20252;-92
2023/09/02 01:24:56;;;;;;;3.53;2.00;;;;;;;;;;5012552;28;20233;-92
2023/09/02 01:27:29;;;;;;;2.88;1.92;;;;;;;;;;4955765;29;20207;-93
2023/09/02 01:29:57;;;;;;;3.63;1.92;;;;;;;;;;4955455;29;20270;-92
2023/09/02 01:32:29;;;;;;;2.50;1.92;;;;;;;;;;4954986;29;20207;-92
2023/09/02 01:34:57;;;;;;;4.18;2.17;;;;;;;;;;4955319;29;20251;-92
2023/09/02 01:37:25;;;;;;;2.40;1.80;;;;;;;;;;4954934;29;20290;-92
2023/09/02 01:39:55;;;;;;;2.92;1.73;;;;;;;;;;4955222;29;20203;-92
2023/09/02 01:42:23;;;;;;;3.10;2.08;;;;;;;;;;4955377;29;20207;-92
2023/09/02 01:44:52;;;;;;;4.75;2.30;;;;;;;;;;4953066;29;20575;-92
2023/09/02 01:47:19;;;;;;;3.88;2.00;;;;;;;;;;4955258;29;20207;-92
2023/09/02 01:49:48;;;;;;;2.28;1.85;;;;;;;;;;4954502;29;20239;-93
2023/09/02 01:52:16;;;;;;;4.40;2.03;;;;;;;;;;4955321;29;20234;-93
2023/09/02 01:54:44;;;;;;;9.98;2.28;;;;;;;;;;4954726;29;20573;-92
2023/09/02 01:57:12;;;;;;;3.75;1.90;;;;;;;;;;4955139;29;20207;-92
2023/09/02 01:59:39;;;;;;;2.63;1.88;;;;;;;;;;4954224;28;20293;-92
2023/09/02 02:02:08;;;;;;;6.60;1.90;;;;;;;;;;4959356;28;20227;-91
2023/09/02 02:04:36;;;;;;;4.40;1.95;;;;;;;;;;5015022;28;20208;-92
2023/09/02 02:07:06;;;;;;;3.42;2.03;;;;;;;;;;5015815;28;20223;-92
2023/09/02 02:09:37;;;;;;;2.97;1.88;;;;;;;;;;5017473;28;20295;-92
2023/09/02 02:12:05;;;;;;;3.38;1.83;;;;;;;;;;5016790;28;20197;-92
2023/09/02 02:14:33;;;;;;;4.40;1.70;;;;;;;;;;5015439;28;20201;-91
2023/09/02 02:17:00;;;;;;;2.85;1.70;;;;;;;;;;5017805;28;20650;-92
2023/09/02 02:19:29;;;;;;;2.58;1.80;;;;;;;;;;5027575;28;20209;-92
2023/09/02 02:21:57;;;;;;;2.08;1.88;;;;;;;;;;5014989;28;20209;-92
2023/09/02 02:24:24;;;;;;;4.72;2.00;;;;;;;;;;5015513;28;20197;-92
2023/09/02 02:26:52;;;;;;;3.28;1.85;;;;;;;;;;5015892;28;20346;-93
2023/09/02 02:29:19;;;;;;;6.82;2.10;;;;;;;;;;5014739;28;20205;-93
2023/09/02 02:31:47;;;;;;;5.43;2.17;;;;;;;;;;5014620;28;20205;-92
2023/09/02 02:34:14;;;;;;;3.67;2.22;;;;;;;;;;5014567;28;20212;-93
2023/09/02 02:36:43;;;;;;;3.05;2.10;;;;;;;;;;5014438;28;20201;-93
2023/09/02 02:39:11;;;;;;;3.85;2.60;;;;;;;;;;5013950;28;20197;-92
2023/09/02 02:41:39;;;;;;;3.75;2.10;;;;;;;;;;5016009;28;20277;-93
2023/09/02 02:44:07;;;;;;;4.25;2.47;;;;;;;;;;5015970;28;20201;-93
2023/09/02 02:46:34;;;;;;;4.97;2.30;;;;;;;;;;5015763;28;20218;-93
2023/09/02 02:49:02;;;;;;;3.92;2.20;;;;;;;;;;5016015;28;20197;-93
2023/09/02 02:51:29;;;;;;;3.90;2.47;;;;;;;;;;5014614;28;20229;-93
2023/09/02 02:53:58;;;;;;;4.20;2.28;;;;;;;;;;5015031;28;20201;-92
2023/09/02 02:56:26;;;;;;;4.68;2.33;;;;;;;;;;5014702;28;20552;-93
2023/09/02 02:58:53;;;;;;;3.53;2.50;;;;;;;;;;5014615;28;20204;-92
2023/09/02 03:01:20;;;;;;;4.28;2.28;;;;;;;;;;5015875;28;20197;-95
2023/09/02 03:03:49;;;;;;;5.65;2.40;;;;;;;;;;5014884;28;20247;-93
2023/09/02 03:06:17;;;;;;;5.07;2.50;;;;;;;;;;5015242;28;20208;-94
2023/09/02 03:08:45;;;;;;;4.15;2.42;;;;;;;;;;5014604;28;20201;-95
2023/09/02 03:11:14;;;;;;;2.55;2.22;;;;;;;;;;5014112;28;20232;-93
2023/09/02 03:13:42;;;;;;;3.63;2.38;;;;;;;;;;5018417;28;20197;-95
2023/09/02 03:16:09;;;;;;;4.15;2.65;;;;;;;;;;5018490;28;20592;-93
2023/09/02 03:18:37;;;;;;;4.90;2.38;;;;;;;;;;5017984;28;20205;-94
2023/09/02 03:21:04;;;;;;;4.13;2.20;;;;;;;;;;5019217;28;20204;-94
2023/09/02 03:23:32;;;;;;;5.95;2.10;;;;;;;;;;5018157;28;20215;-94
2023/09/02 03:26:07;;;;;;;4.65;2.33;;;;;;;;;;5018599;28;20251;-93
2023/09/02 03:28:36;;;;;;;3.35;2.35;;;;;;;;;;5018348;28;20255;-93
2023/09/02 03:31:07;;;;;;;3.53;2.55;;;;;;;;;;5018215;28;20705;-93
2023/09/02 03:33:35;;;;;;;4.75;2.30;;;;;;;;;;5018365;28;20247;-94
2023/09/02 03:36:03;;;;;;;4.00;2.63;;;;;;;;;;5018868;28;20211;-93
2023/09/02 03:38:31;;;;;;;5.97;2.70;;;;;;;;;;5018668;28;20193;-93
2023/09/02 03:40:59;;;;;;;4.65;2.83;;;;;;;;;;5017669;28;20898;-93
2023/09/02 03:43:27;;;;;;;3.95;2.58;;;;;;;;;;5020522;28;20243;-94
2023/09/02 03:45:58;;;;;;;5.63;2.40;;;;;;;;;;5018980;28;20201;-94
2023/09/02 03:48:25;;;;;;;4.75;2.50;;;;;;;;;;5019373;28;20197;-93
2023/09/02 03:51:03;;;;;;;4.85;2.50;;;;;;;;;;5018448;28;20229;-94
2023/09/02 03:53:31;;;;;;;4.20;2.55;;;;;;;;;;5017378;28;20653;-93
2023/09/02 03:55:59;;;;;;;7.18;2.50;;;;;;;;;;5017257;28;20201;-93
2023/09/02 03:58:26;;;;;;;6.13;2.65;;;;;;;;;;5018002;28;20197;-91
2023/09/02 04:00:54;;;;;;;5.05;2.60;;;;;;;;;;5017386;28;20233;-94
2023/09/02 04:03:24;;;;;;;4.85;2.42;;;;;;;;;;5018467;28;20209;-95
2023/09/02 04:05:51;;;;;;;5.40;2.60;;;;;;;;;;5018488;28;20200;-93
2023/09/02 04:08:20;;;;;;;3.78;2.50;;;;;;;;;;5019814;28;20197;-94
2023/09/02 04:10:51;;;;;;;4.25;2.53;;;;;;;;;;5018053;28;20254;-94
2023/09/02 04:13:19;;;;;;;3.88;2.42;;;;;;;;;;5019337;28;20263;-93
2023/09/02 04:15:48;;;;;;;3.65;2.35;;;;;;;;;;5017778;28;20252;-93
2023/09/02 04:18:15;;;;;;;4.68;2.72;;;;;;;;;;5016891;28;20705;-93
2023/09/02 04:20:44;;;;;;;7.40;3.00;;;;;;;;;;5016963;28;20208;-93
2023/09/02 04:23:11;;;;;;;4.30;3.08;;;;;;;;;;5016182;28;20550;-94
2023/09/02 04:25:49;;;;;;;3.10;2.72;;;;;;;;;;5017095;28;20201;-94
2023/09/02 04:28:16;;;;;;;3.00;2.55;;;;;;;;;;5017223;28;20205;-94
2023/09/02 04:30:44;;;;;;;4.22;2.70;;;;;;;;;;5017739;28;20228;-93
2023/09/02 04:33:11;;;;;;;3.90;2.70;;;;;;;;;;5017378;28;20283;-94
2023/09/02 04:35:39;;;;;;;4.15;3.03;;;;;;;;;;5017674;28;20310;-93
2023/09/02 04:38:08;;;;;;;6.90;3.42;;;;;;;;;;5016470;28;20196;-93
2023/09/02 04:40:37;;;;;;;4.65;3.65;;;;;;;;;;5017365;28;20197;-93
2023/09/02 04:43:05;;;;;;;8.52;4.43;;;;;;;;;;5017394;28;20197;-94
2023/09/02 04:45:33;;;;;;;14.30;6.32;;;;;;;;;;5016530;28;20197;-93
2023/09/02 04:48:01;;;;;;;11.48;5.40;;;;;;;;;;5017132;28;20201;-93
2023/09/02 04:50:28;;;;;;;8.45;5.53;;;;;;;;;;5016878;28;20657;-94
2023/09/02 04:52:56;;;;;;;9.73;6.20;;;;;;;;;;5016588;28;20201;-94
2023/09/02 04:55:26;;;;;;;9.88;6.03;;;;;;;;;;5016580;28;20283;-94
2023/09/02 04:57:53;;;;;;;11.55;6.18;;;;;;;;;;5017393;28;20204;-94
2023/09/02 05:00:21;;;;;;;11.25;6.97;;;;;;;;;;5017049;28;20779;-94
2023/09/02 05:02:49;;;;;;;12.18;6.88;;;;;;;;;;5016798;28;20209;-93
2023/09/02 05:05:17;;;;;;;11.40;7.13;;;;;;;;;;5016962;28;20685;-93
2023/09/02 05:07:45;;;;;;;9.85;6.72;;;;;;;;;;5017268;28;20291;-94
2023/09/02 05:10:13;;;;;;;9.98;6.50;;;;;;;;;;5017628;28;20268;-93
2023/09/02 05:12:42;;;;;;;10.98;6.40;;;;;;;;;;5016082;28;20197;-92
2023/09/02 05:15:10;;;;;;;12.48;6.72;;;;;;;;;;5017258;28;20201;-93
2023/09/02 05:17:38;;;;;;;12.32;6.97;;;;;;;;;;5016935;28;20259;-93
2023/09/02 05:20:06;;;;;;;10.20;7.03;;;;;;;;;;5018396;28;20202;-93
2023/09/02 05:22:34;;;;;;;9.48;6.78;;;;;;;;;;5016611;28;20197;-94
2023/09/02 05:25:02;;;;;;;12.00;7.38;;;;;;;;;;5016607;28;20255;-93
2023/09/02 05:27:30;;;;;;;13.95;7.75;;;;;;;;;;5017437;28;20198;-93
2023/09/02 05:29:59;;;;;;;14.30;8.07;;;;;;;;;;5016210;28;20204;-94
2023/09/02 05:32:26;;;;;;;15.38;8.40;;;;;;;;;;5015840;28;20239;-94
2023/09/02 05:34:54;;;;;;;15.25;9.18;;;;;;;;;;5015703;28;20208;-94
2023/09/02 05:37:21;;;;;;;18.15;9.30;;;;;;;;;;5015620;28;20205;-93
2023/09/02 05:39:49;;;;;;;17.10;10.02;;;;;;;;;;5015658;28;20205;-93
2023/09/02 05:42:16;;;;;;;20.60;11.10;;;;;;;;;;5015444;28;20201;-94
2023/09/02 05:44:44;;;;;;;22.38;11.18;;;;;;;;;;5016182;28;20205;-94
2023/09/02 05:47:13;;;;;;;23.75;11.88;;;;;;;;;;5017748;28;20197;-93
2023/09/02 05:49:40;;;;;;;25.95;11.50;;;;;;;;;;5019172;28;20201;-93
2023/09/02 05:52:07;;;;;;;24.30;12.57;;;;;;;;;;5016111;28;20217;-96
2023/09/02 05:54:35;;;;;;;25.30;12.52;;;;;;;;;;5016435;28;20197;-95
2023/09/02 05:57:02;;;;;;;25.05;12.98;;;;;;;;;;5015696;28;20601;-96
2023/09/02 05:59:30;;;;;;;23.20;12.13;;;;;;;;;;5015250;28;20229;-96
2023/09/02 06:01:58;;;;;;;25.45;11.57;;;;;;;;;;5015863;28;20244;-95
2023/09/02 06:04:27;;;;;;;22.15;12.38;;;;;;;;;;5014493;28;20201;-96
2023/09/02 06:06:55;;;;;;;23.38;11.73;;;;;;;;;;5014768;28;20255;-96
2023/09/02 06:09:26;;;;;;;21.38;12.18;;;;;;;;;;5015268;28;20197;-95
2023/09/02 06:11:53;;;;;;;21.30;12.30;;;;;;;;;;5015130;28;20315;-95
2023/09/02 06:14:20;;;;;;;22.30;13.05;;;;;;;;;;5015161;28;20205;-96
2023/09/02 06:16:48;;;;;;;24.35;13.10;;;;;;;;;;5015284;28;20212;-96
2023/09/02 06:19:15;;;;;;;22.88;12.50;;;;;;;;;;5017498;28;20209;-96
2023/09/02 06:21:45;;;;;;;22.17;12.25;;;;;;;;;;5017010;28;20208;-95
2023/09/02 06:24:12;;;;;;;28.48;12.98;;;;;;;;;;5017620;28;20201;-95
2023/09/02 06:26:45;;;;;;;22.70;12.02;;;;;;;;;;5018459;28;20342;-96
2023/09/02 06:29:13;;;;;;;22.42;13.13;;;;;;;;;;5020052;28;20201;-95
2023/09/02 06:31:41;;;;;;;25.80;13.40;;;;;;;;;;5018192;28;20291;-93
2023/09/02 06:34:08;;;;;;;22.55;12.55;;;;;;;;;;5020158;28;20208;-95
2023/09/02 06:36:37;;;;;;;20.42;11.57;;;;;;;;;;5019863;28;20201;-96
2023/09/02 06:39:14;;;;;;;29.35;13.45;;;;;;;;;;5020535;28;20655;-96
2023/09/02 06:41:44;;;;;;;20.02;12.07;;;;;;;;;;5022546;28;20255;-96
2023/09/02 06:44:11;;;;;;;21.05;12.65;;;;;;;;;;5023674;28;20643;-96
2023/09/02 06:46:41;;;;;;;21.38;12.45;;;;;;;;;;5023073;28;20270;-96
2023/09/02 06:49:10;;;;;;;22.35;12.57;;;;;;;;;;5025621;28;20205;-95
2023/09/02 06:51:46;;;;;;;26.17;12.50;;;;;;;;;;5024574;28;20697;-96
2023/09/02 06:54:24;;;;;;;22.92;12.45;;;;;;;;;;5024351;28;20193;-96
2023/09/02 06:56:52;;;;;;;20.85;11.65;;;;;;;;;;5021029;28;20220;-96
2023/09/02 06:59:19;;;;;;;20.85;11.52;;;;;;;;;;5024297;28;20239;-96
2023/09/02 07:01:47;;;;;;;18.40;11.65;;;;;;;;;;5021953;28;20185;-96
2023/09/02 07:04:17;;;;;;;17.83;11.80;;;;;;;;;;5019299;28;20243;-95
2023/09/02 07:06:44;;;;;;;17.88;11.27;;;;;;;;;;5019287;28;20193;-95
2023/09/02 07:09:12;;;;;;;15.75;11.02;;;;;;;;;;5021677;28;20201;-95
2023/09/02 07:11:41;;;;;;;17.75;10.40;;;;;;;;;;5020761;28;20396;-94
2023/09/02 07:14:08;;;;;;;11.90;9.70;;;;;;;;;;5018253;28;20642;-95
2023/09/02 07:16:36;;;;;;;10.45;8.55;;;;;;;;;;5018443;28;20212;-96
2023/09/02 07:19:08;;;;;;;12.35;7.40;;;;;;;;;;5023320;28;20220;-96
2023/09/02 07:21:39;;;;;;;7.45;6.60;;;;;;;;;;5027849;28;20201;-96
2023/09/02 07:24:09;;;;;;;7.80;5.63;;;;;;;;;;5025620;28;20224;-96
2023/09/02 07:26:38;;;;;;;5.25;4.45;;;;;;;;;;5029009;28;20291;-96
2023/09/02 07:29:07;;;;;;;4.80;4.13;;;;;;;;;;5019031;28;20673;-91
2023/09/02 07:31:34;;;;;;;4.85;3.53;;;;;;;;;;5017764;28;20233;-92
2023/09/02 07:34:02;;;;;;;4.82;3.25;;;;;;;;;;5017263;28;20247;-91
2023/09/02 07:36:29;;;;;;;3.13;2.83;;;;;;;;;;5017386;28;20232;-92
2023/09/02 07:38:56;;;;;;;3.55;2.90;;;;;;;;;;5017642;28;20204;-90
2023/09/02 07:41:23;;;;;;;4.75;3.05;;;;;;;;;;5017806;28;20221;-93
2023/09/02 07:43:51;;;;;;;3.33;2.92;;;;;;;;;;5017286;28;20730;-91
2023/09/02 07:46:20;;;;;;;3.60;2.92;;;;;;;;;;5017357;28;20263;-92
2023/09/02 07:48:49;;;;;;;2.78;2.58;;;;;;;;;;5017750;28;20205;-92
2023/09/02 07:51:17;;;;;;;3.33;2.60;;;;;;;;;;5017403;28;20235;-92
2023/09/02 07:53:45;;;;;;;3.53;2.70;;;;;;;;;;5017154;28;20627;-93
2023/09/02 07:56:12;;;;;;;3.95;2.58;;;;;;;;;;5020856;28;20285;-91
2023/09/02 07:58:42;;;;;;;2.83;2.63;;;;;;;;;;5004972;28;20237;-91
2023/09/02 08:01:09;;;;;;;2.83;2.55;;;;;;;;;;4997985;28;20230;-90
2023/09/02 08:03:38;;;;;;;2.85;2.65;;;;;;;;;;4996632;28;20190;-91
2023/09/02 08:06:08;;;;;;;3.47;2.40;;;;;;;;;;4997091;28;20281;-91
2023/09/02 08:08:35;;;;;;;5.28;2.70;;;;;;;;;;4997467;28;20200;-92
2023/09/02 08:11:04;;;;;;;2.78;2.50;;;;;;;;;;4998123;28;20229;-96
2023/09/02 08:13:31;;;;;;;2.88;2.55;;;;;;;;;;4997906;28;20197;-94
2023/09/02 08:15:59;;;;;;;2.85;2.65;;;;;;;;;;4998116;28;20190;-95
2023/09/02 08:18:26;;;;;;;3.63;2.53;;;;;;;;;;5013592;28;20205;-95
2023/09/02 08:20:55;;;;;;;3.33;3.00;;;;;;;;;;5016645;28;20240;-93
2023/09/02 08:23:23;;;;;;;2.65;2.45;;;;;;;;;;5016526;28;20209;-93
2023/09/02 08:25:50;;;;;;;4.68;2.88;;;;;;;;;;5016460;28;20260;-94
2023/09/02 08:28:18;;;;;;;5.50;3.13;;;;;;;;;;5017110;28;20189;-94
2023/09/02 08:30:45;;;;;;;3.75;3.28;;;;;;;;;;5018912;28;20189;-95
2023/09/02 08:33:13;;;;;;;3.15;2.80;;;;;;;;;;5016261;28;20260;-93
2023/09/02 08:35:40;;;;;;;2.55;2.35;;;;;;;;;;5016278;28;20296;-95
2023/09/02 08:38:09;;;;;;;3.58;3.28;;;;;;;;;;5015737;28;20224;-93
2023/09/02 08:40:44;;;;;;;3.63;3.30;;;;;;;;;;5016511;28;20633;-94
2023/09/02 08:43:12;;;;;;;3.90;3.60;;;;;;;;;;5016588;28;20550;-94
2023/09/02 08:45:42;;;;;;;5.32;4.93;;;;;;;;;;5015816;28;20681;-94
2023/09/02 08:48:13;;;;;;;6.15;5.65;;;;;;;;;;5015777;28;20224;-94
2023/09/02 08:50:40;;;;;;;5.57;5.07;;;;;;;;;;5016055;28;20648;-94
2023/09/02 08:53:09;;;;;;;6.15;5.65;;;;;;;;;;5016361;28;20324;-94
2023/09/02 08:55:37;;;;;;;7.50;6.47;;;;;;;;;;5016249;28;20619;-94
2023/09/02 08:58:05;;;;;;;6.93;6.32;;;;;;;;;;5016067;28;20268;-95
2023/09/02 09:00:33;;;;;;;7.70;7.00;;;;;;;;;;5015884;28;20232;-93
2023/09/02 09:03:01;;;;;;;6.60;5.90;;;;;;;;;;5016429;28;20220;-96
2023/09/02 09:05:29;;;;;;;7.18;6.47;;;;;;;;;;5016903;28;20278;-95
2023/09/02 09:07:59;;;;;;;6.40;5.90;;;;;;;;;;5017015;28;20189;-96
2023/09/02 09:10:32;;;;;;;6.45;5.68;;;;;;;;;;5015214;28;20217;-94
2023/09/02 09:13:00;;;;;;;6.60;5.90;;;;;;;;;;5014843;28;20721;-92
2023/09/02 09:15:28;;;;;;;6.43;5.45;;;;;;;;;;5014658;28;20205;-93
2023/09/02 09:17:55;;;;;;;5.65;5.05;;;;;;;;;;5015531;28;20212;-92
2023/09/02 09:20:23;;;;;;;4.93;4.53;;;;;;;;;;5015136;28;20280;-93
2023/09/02 09:22:52;;;;;;;5.75;5.25;;;;;;;;;;5015138;28;20208;-90
2023/09/02 09:25:21;;;;;;;5.07;4.57;;;;;;;;;;5014342;28;20193;-88
2023/09/02 09:27:51;;;;;;;5.15;4.65;;;;;;;;;;5014121;28;20240;-88
2023/09/02 09:30:28;;;;;;;5.00;4.53;;;;;;;;;;5014345;28;20668;-89
2023/09/02 09:32:58;;;;;;;7.40;5.20;;;;;;;;;;5014366;28;20773;-88
2023/09/02 09:35:26;;;;;;;5.22;4.72;;;;;;;;;;4996799;28;20205;-89
2023/09/02 09:37:54;;;;;;;4.93;4.53;;;;;;;;;;5014366;28;20666;-88
2023/09/02 09:40:29;;;;;;;6.88;4.32;;;;;;;;;;5014044;28;20609;-88
2023/09/02 09:42:58;;;;;;;5.60;5.10;;;;;;;;;;5015008;28;20189;-95
2023/09/02 09:45:26;;;;;;;5.25;4.75;;;;;;;;;;5014885;28;20801;-94
2023/09/02 09:47:53;;;;;;;5.88;4.70;;;;;;;;;;5015107;28;20268;-95
2023/09/02 09:50:20;;;;;;;4.57;4.18;;;;;;;;;;5015232;28;20229;-95
2023/09/02 09:52:59;;;;;;;5.35;4.85;;;;;;;;;;5014792;28;20698;-94
2023/09/02 09:55:26;;;;;;;4.50;4.10;;;;;;;;;;5015019;28;20231;-95
2023/09/02 09:57:55;;;;;;;3.70;3.30;;;;;;;;;;5014778;28;20236;-94
2023/09/02 10:00:25;;;;;;;3.78;3.30;;;;;;;;;;5014615;28;20236;-95
2023/09/02 10:02:52;;;;;;;3.28;2.97;;;;;;;;;;5014732;28;20232;-93
2023/09/02 10:05:25;;;;;;;3.10;2.80;;;;;;;;;;5015131;28;20189;-93
2023/09/02 10:08:03;;;;;;;2.60;2.40;;;;;;;;;;5014980;28;20220;-93
2023/09/02 10:10:31;;;;;;;4.63;3.03;;;;;;;;;;5014475;28;20224;-95
2023/09/02 10:12:59;;;;;;;3.30;2.75;;;;;;;;;;5014020;28;20263;-94
2023/09/02 10:15:28;;;;;;;3.78;2.78;;;;;;;;;;5015138;28;20596;-94
2023/09/02 10:17:56;;;;;;;3.03;2.70;;;;;;;;;;5014133;28;20237;-94
2023/09/02 10:20:26;;;;;;;6.35;2.80;;;;;;;;;;5014482;28;20199;-94
2023/09/02 10:22:53;;;;;;;2.15;1.85;;;;;;;;;;5014768;28;20571;-93
2023/09/02 10:25:24;;;;;;;3.58;2.03;;;;;;;;;;5014607;28;20540;-93
2023/09/02 10:27:55;;;;;;;3.83;3.45;;;;;;;;;;5014565;28;20726;-92
2023/09/02 10:30:25;;;;;;;3.70;3.30;;;;;;;;;;5014193;28;20228;-94
2023/09/02 10:32:56;;;;;;;2.85;2.13;;;;;;;;;;5014336;28;20264;-94
2023/09/02 10:35:24;;;;;;;2.22;1.80;;;;;;;;;;5013981;28;20284;-93
2023/09/02 10:37:52;;;;;;;3.10;2.80;;;;;;;;;;5014645;28;20259;-93
2023/09/02 10:40:23;;;;;;;2.70;2.50;;;;;;;;;;5013878;28;20231;-93
2023/09/02 10:42:50;;;;;;;4.10;3.70;;;;;;;;;;5013725;28;20683;-91
2023/09/02 10:45:18;;;;;;;13.15;11.30;;;;;;;;;;5013631;28;20193;-91
2023/09/02 10:47:46;;;;;;;3.38;3.05;;;;;;;;;;5013777;28;20228;-92
2023/09/02 10:50:16;;;;;;;2.25;2.05;;;;;;;;;;5013983;28;20291;-92
2023/09/02 10:52:43;;;;;;;4.78;2.20;;;;;;;;;;5014151;28;20713;-91
2023/09/02 10:55:11;;;;;;;2.17;1.75;;;;;;;;;;5014127;28;20284;-92
2023/09/02 10:57:56;;;;;;;2.17;1.88;;;;;;;;;;5013686;28;20271;-92
2023/09/02 11:00:25;;;;;;;2.45;1.90;;;;;;;;;;5013643;28;20268;-92
2023/09/02 11:02:53;;;;;;;2.97;1.92;;;;;;;;;;5013863;28;20193;-92
2023/09/02 11:05:22;;;;;;;4.10;1.80;;;;;;;;;;5013929;28;20216;-93
2023/09/02 11:07:50;;;;;;;1.90;1.80;;;;;;;;;;5014070;28;20231;-91
2023/09/02 11:10:18;;;;;;;2.60;1.90;;;;;;;;;;5013911;28;20196;-92
2023/09/02 11:13:06;;;;;;;2.30;2.10;;;;;;;;;;5014127;28;20311;-93
2023/09/02 11:15:34;;;;;;;2.75;2.15;;;;;;;;;;5010744;28;20205;-91
2023/09/02 11:18:20;;;;;;;2.05;1.85;;;;;;;;;;5013467;28;20209;-91
2023/09/02 11:20:52;;;;;;;1.90;1.80;;;;;;;;;;5013778;28;20221;-93
2023/09/02 11:23:22;;;;;;;2.22;1.90;;;;;;;;;;5013052;28;20209;-90
2023/09/02 11:26:01;;;;;;;2.45;1.83;;;;;;;;;;5013308;28;20284;-91
2023/09/02 11:28:29;;;;;;;2.00;1.80;;;;;;;;;;5013489;28;20193;-89
2023/09/02 11:31:08;;;;;;;2.53;1.85;;;;;;;;;;5013474;28;20228;-92
2023/09/02 11:33:35;;;;;;;1.50;1.40;;;;;;;;;;5015946;28;20221;-91
2023/09/02 11:36:09;;;;;;;2.35;1.83;;;;;;;;;;5016892;28;20244;-94
2023/09/02 11:38:36;;;;;;;1.70;1.50;;;;;;;;;;5017503;28;20221;-93
2023/09/02 11:41:04;;;;;;;3.15;1.40;;;;;;;;;;5017338;28;20276;-94
2023/09/02 11:43:32;;;;;;;2.40;1.63;;;;;;;;;;5017509;28;20280;-95
2023/09/02 11:46:00;;;;;;;1.98;1.60;;;;;;;;;;5017238;28;20613;-94
2023/09/02 11:48:28;;;;;;;1.73;1.52;;;;;;;;;;5017434;28;20192;-92
2023/09/02 11:50:58;;;;;;;2.95;1.67;;;;;;;;;;5012906;28;20201;-92
2023/09/02 11:53:27;;;;;;;2.83;2.28;;;;;;;;;;5016736;28;20224;-92
2023/09/02 11:55:55;;;;;;;2.47;2.17;;;;;;;;;;5016330;28;20217;-91
2023/09/02 11:58:22;;;;;;;4.20;2.13;;;;;;;;;;5016297;28;20197;-93
2023/09/02 12:00:49;;;;;;;3.00;2.78;;;;;;;;;;5016687;28;20273;-93
2023/09/02 12:03:24;;;;;;;3.38;3.08;;;;;;;;;;5016961;28;20601;-91
2023/09/02 12:05:52;;;;;;;2.65;2.45;;;;;;;;;;5016468;28;20215;-92
2023/09/02 12:08:20;;;;;;;2.60;2.40;;;;;;;;;;5016552;28;20635;-92
2023/09/02 12:10:50;;;;;;;2.83;2.60;;;;;;;;;;5016830;28;20251;-90
2023/09/02 12:13:18;;;;;;;2.60;2.40;;;;;;;;;;5009443;28;20249;-92
2023/09/02 12:15:49;;;;;;;2.45;2.25;;;;;;;;;;5015000;28;20228;-92
2023/09/02 12:18:17;;;;;;;2.20;2.00;;;;;;;;;;5016217;28;20315;-91
2023/09/02 12:20:44;;;;;;;2.70;2.50;;;;;;;;;;5011006;28;20580;-92
2023/09/02 12:23:12;;;;;;;2.20;2.00;;;;;;;;;;5014962;28;20211;-92
2023/09/02 12:25:40;;;;;;;3.35;1.90;;;;;;;;;;5016090;28;20229;-92
2023/09/02 12:28:13;;;;;;;2.17;1.90;;;;;;;;;;5016110;28;20201;-91
2023/09/02 12:30:40;;;;;;;2.42;1.80;;;;;;;;;;5015257;28;20658;-90
2023/09/02 12:33:08;;;;;;;2.97;1.90;;;;;;;;;;5015476;28;20323;-92
2023/09/02 12:35:50;;;;;;;2.63;2.13;;;;;;;;;;5015865;28;20263;-92
2023/09/02 12:38:19;;;;;;;2.30;2.10;;;;;;;;;;5015479;28;20189;-91
2023/09/02 12:40:53;;;;;;;2.70;2.50;;;;;;;;;;5016006;28;20205;-90
2023/09/02 12:43:27;;;;;;;3.15;2.50;;;;;;;;;;5014492;28;20634;-91
2023/09/02 12:45:55;;;;;;;2.47;2.28;;;;;;;;;;5014960;28;20205;-92
2023/09/02 12:48:22;;;;;;;2.40;2.20;;;;;;;;;;5015742;28;20624;-93
2023/09/02 12:50:49;;;;;;;7.57;2.50;;;;;;;;;;5015143;28;20252;-92
2023/09/02 12:53:17;;;;;;;3.22;2.50;;;;;;;;;;5015384;28;20209;-90
2023/09/02 12:55:45;;;;;;;2.40;2.20;;;;;;;;;;5015518;28;20256;-90
2023/09/02 12:58:13;;;;;;;4.10;2.03;;;;;;;;;;5015296;28;20202;-91
2023/09/02 13:00:42;;;;;;;2.25;2.05;;;;;;;;;;5015291;28;20713;-88
2023/09/02 13:03:09;;;;;;;2.45;2.25;;;;;;;;;;5011559;28;20654;-91
2023/09/02 13:05:36;;;;;;;2.13;2.00;;;;;;;;;;5014375;28;20730;-89
2023/09/02 13:08:04;;;;;;;2.20;2.00;;;;;;;;;;5013036;28;20287;-90
2023/09/02 13:10:32;;;;;;;2.35;1.98;;;;;;;;;;5019868;28;20226;-91
2023/09/02 13:12:59;;;;;;;2.13;1.92;;;;;;;;;;5028009;28;20236;-88
2023/09/02 13:15:26;;;;;;;2.85;1.70;;;;;;;;;;5015263;28;20247;-90
2023/09/02 13:17:56;;;;;;;2.83;1.92;;;;;;;;;;5015185;28;20583;-89
2023/09/02 13:20:23;;;;;;;3.35;2.13;;;;;;;;;;5027874;28;20266;-91
2023/09/02 13:22:50;;;;;;;1.95;1.85;;;;;;;;;;5014141;28;20220;-89
2023/09/02 13:25:18;;;;;;;2.35;2.15;;;;;;;;;;5015006;28;20228;-91
2023/09/02 13:27:45;;;;;;;2.13;1.92;;;;;;;;;;5014936;28;20631;-89
2023/09/02 13:30:13;;;;;;;2.50;1.60;;;;;;;;;;5014828;28;20670;-89
2023/09/02 13:32:40;;;;;;;1.80;1.67;;;;;;;;;;5014853;28;20263;-92
2023/09/02 13:35:23;;;;;;;1.73;1.60;;;;;;;;;;5014720;28;20217;-90
2023/09/02 13:37:52;;;;;;;2.55;1.80;;;;;;;;;;5012100;28;20203;-88
2023/09/02 13:40:34;;;;;;;1.63;1.52;;;;;;;;;;5012538;28;20205;-89
2023/09/02 13:43:04;;;;;;;2.75;2.00;;;;;;;;;;5007337;28;20240;-88
2023/09/02 13:45:32;;;;;;;1.80;1.60;;;;;;;;;;5014419;28;20267;-90
2023/09/02 13:48:00;;;;;;;2.95;1.60;;;;;;;;;;5014370;28;20197;-88
2023/09/02 13:50:27;;;;;;;3.88;1.80;;;;;;;;;;5013654;28;20272;-89
2023/09/02 13:52:56;;;;;;;1.80;1.70;;;;;;;;;;5014488;28;20225;-89
2023/09/02 13:55:24;;;;;;;1.63;1.50;;;;;;;;;;5003740;28;20709;-89
2023/09/02 13:57:52;;;;;;;2.78;1.70;;;;;;;;;;5011682;28;20291;-89
2023/09/02 14:00:25;;;;;;;2.33;1.60;;;;;;;;;;5014209;28;20636;-89
2023/09/02 14:02:53;;;;;;;2.00;1.80;;;;;;;;;;5014363;28;20287;-89
2023/09/02 14:05:23;;;;;;;1.92;1.70;;;;;;;;;;5013800;28;20240;-89
2023/09/02 14:07:52;;;;;;;2.25;2.05;;;;;;;;;;5014554;28;20243;-90
2023/09/02 14:10:21;;;;;;;1.70;1.60;;;;;;;;;;5014174;28;20228;-90
2023/09/02 14:12:48;;;;;;;1.60;1.50;;;;;;;;;;5014405;28;20284;-90
2023/09/02 14:15:16;;;;;;;2.33;1.80;;;;;;;;;;5014206;28;20297;-91
2023/09/02 14:17:43;;;;;;;2.75;1.80;;;;;;;;;;5014337;28;20243;-89
2023/09/02 14:20:11;;;;;;;2.17;1.98;;;;;;;;;;5008840;28;20251;-89
2023/09/02 14:22:39;;;;;;;1.75;1.65;;;;;;;;;;5013891;28;20306;-89
2023/09/02 14:25:07;;;;;;;1.75;1.65;;;;;;;;;;5013444;28;20225;-89
2023/09/02 14:27:37;;;;;;;2.05;1.77;;;;;;;;;;5013707;28;20284;-90
2023/09/02 14:30:04;;;;;;;1.92;1.58;;;;;;;;;;5013938;28;20197;-90
2023/09/02 14:32:32;;;;;;;2.75;1.35;;;;;;;;;;5013350;28;20288;-92
2023/09/02 14:34:59;;;;;;;2.15;1.70;;;;;;;;;;5012852;28;20321;-90
2023/09/02 14:37:30;;;;;;;1.95;1.85;;;;;;;;;;5013823;28;20247;-93
2023/09/02 14:39:57;;;;;;;1.70;1.60;;;;;;;;;;5014363;28;20224;-93
2023/09/02 14:42:25;;;;;;;2.17;1.98;;;;;;;;;;5012972;28;20272;-92
2023/09/02 14:44:57;;;;;;;2.13;1.80;;;;;;;;;;4666887;28;9999888;-93
2023/09/02 14:47:25;;;;;;;3.25;1.88;;;;;;;;;;5012880;28;20209;-93